USTRANSCOM 7520


KWRI
Joint Base McGuire Dix Lakehurst
Wrightstown, New Jersey, US
KCOF
Patrick Air Force Base
Cocoa Beach, Florida, US

Activity Log

Date Flight Route Aircraft Duration
08/18/2019 CMB820 MXE4 MXE OTT RIC J165 CHS J121 B752 2h 31m
05/22/2019 CMB820 MXE4 MXE OTT RIC J165 CHS J121 MILIE J103 OMN BITHO7 B752 2h 00m

Route Details

Aircraft Information
Primary: Boeing 757-200SF
Backup: Not Available
Route Data
Distance: 768nm
Sched. Duration: 2h 04m
Avg. Duration: 2h 16m (+11m)
Times Flown: 2
Recm'd Route: CYN226011 ACY V229 LEEAH V1 ISO J121 MILIE J103 OMN BITHO7
Planned Altitude: 40,000ft
Origin Wx: KWRI 281256Z 24009KT 10SM SCT043 BKN050 OVC065 00/M10 A2993 RMK AO2A SLPNO T00011099 $
Dest. Wx: KCOF 281256Z AUTO 33011G17KT M M CLR 11/02 A3024 RMK AO2 SLP245 T01140019 RVRNO $
Notes: USTRANSCOM CONTRACT FLIGHT

Financial History
Total Freight: 112,283lbs
Average Load: 56,142lbs/flt
Fuel Used: 33,323lbs
Avg. Fuel Used: 16,662lbs/flt
Fuel Expense: $32,990
Avg. Fuel Expense: $16,495
Avg. Fuel Cost: $0.99/lbs
Total Gross Income: $156,073
Pilot Pay: $378
Total Expenses: $16,960
Total Revenue: $105,065
Average Revenue: $78,036.68